createdAt,value
2022-11-27T00:01:10.361Z,97164.63
2022-11-27T00:03:38.193Z,97155.84
2022-11-27T00:06:06.335Z,97151.19
2022-11-27T00:08:35.390Z,97164.25
2022-11-27T00:11:07.983Z,97158.44
2022-11-27T00:13:36.515Z,97138.97
2022-11-27T00:16:05.259Z,97165.31
2022-11-27T00:18:33.631Z,97171.88
2022-11-27T00:21:04.293Z,97173.03
2022-11-27T00:23:32.925Z,97154.69
2022-11-27T00:26:02.665Z,97175.81
2022-11-27T00:28:31.209Z,97170.78
2022-11-27T00:30:59.710Z,97175.97
2022-11-27T00:33:27.816Z,97166.06
2022-11-27T00:35:55.749Z,97172.22
2022-11-27T00:38:23.745Z,97161.94
2022-11-27T00:40:51.498Z,97154.59
2022-11-27T00:43:20.589Z,97147.00
2022-11-27T00:45:50.279Z,97134.22
2022-11-27T00:48:17.999Z,97133.50
2022-11-27T00:50:45.713Z,97134.31
2022-11-27T00:53:13.453Z,97132.31
2022-11-27T00:55:41.189Z,97143.56
2022-11-27T00:58:08.911Z,97134.47
2022-11-27T01:00:37.933Z,97139.22
2022-11-27T01:03:05.988Z,97117.69
2022-11-27T01:05:36.467Z,97131.56
2022-11-27T01:08:04.651Z,97135.28
2022-11-27T01:10:32.313Z,97108.13
2022-11-27T01:13:00.027Z,97129.13
2022-11-27T01:15:28.013Z,97121.25
2022-11-27T01:17:57.045Z,97125.91
2022-11-27T01:20:24.745Z,97118.03
2022-11-27T01:22:52.612Z,97122.59
2022-11-27T01:25:24.195Z,97121.53
2022-11-27T01:27:54.665Z,97118.22
2022-11-27T01:30:22.339Z,97114.84
2022-11-27T01:32:50.102Z,97110.44
2022-11-27T01:35:19.175Z,97106.53
2022-11-27T01:37:46.857Z,97109.91
2022-11-27T01:40:14.785Z,97111.00
2022-11-27T01:42:42.491Z,97101.06
2022-11-27T01:45:11.320Z,97087.03
2022-11-27T01:47:45.059Z,97103.66
2022-11-27T01:50:22.716Z,97103.38
2022-11-27T01:52:53.957Z,97103.03
2022-11-27T01:55:28.863Z,97107.13
2022-11-27T01:58:01.020Z,97110.72
2022-11-27T02:00:28.771Z,97097.75
2022-11-27T02:02:56.651Z,97093.56
2022-11-27T02:05:28.522Z,97091.31
2022-11-27T02:07:59.171Z,97094.91
2022-11-27T02:10:37.732Z,97084.25
2022-11-27T02:13:10.688Z,97091.88
2022-11-27T02:15:45.239Z,97071.66
2022-11-27T02:18:19.913Z,97085.16
2022-11-27T02:20:55.268Z,97077.81
2022-11-27T02:23:51.140Z,97072.19
2022-11-27T02:26:37.711Z,97062.47
2022-11-27T02:29:08.797Z,97066.91
2022-11-27T02:31:41.853Z,97065.59
2022-11-27T02:34:23.979Z,97051.91
2022-11-27T02:36:58.290Z,97056.19
2022-11-27T02:39:34.293Z,97053.34
2022-11-27T02:42:09.715Z,97039.75
2022-11-27T02:44:44.131Z,97049.50
2022-11-27T02:47:13.730Z,97048.06
2022-11-27T02:49:44.041Z,97052.38
2022-11-27T02:52:14.236Z,97042.34
2022-11-27T02:54:44.343Z,97027.63
2022-11-27T02:57:15.003Z,97017.94
2022-11-27T02:59:45.970Z,97015.09
2022-11-27T03:02:19.819Z,97016.34
2022-11-27T03:04:52.872Z,97009.94
2022-11-27T03:07:31.808Z,97009.47
2022-11-27T03:10:04.753Z,97001.41
2022-11-27T03:12:32.761Z,97000.97
2022-11-27T03:15:01.859Z,97009.66
2022-11-27T03:17:43.841Z,97011.00
2022-11-27T03:20:17.226Z,97011.16
2022-11-27T03:22:45.055Z,97005.81
2022-11-27T03:25:12.993Z,97003.59
2022-11-27T03:27:45.469Z,97005.00
2022-11-27T03:30:15.441Z,97008.94
2022-11-27T03:32:44.085Z,96994.47
2022-11-27T03:35:15.335Z,97009.91
2022-11-27T03:37:43.393Z,96992.59
2022-11-27T03:40:12.834Z,96985.72
2022-11-27T03:42:54.141Z,96986.44
2022-11-27T03:45:31.133Z,96984.47
2022-11-27T03:48:10.003Z,96982.25
2022-11-27T03:50:47.588Z,96976.59
2022-11-27T03:53:22.949Z,96970.97
2022-11-27T03:55:58.249Z,96970.97
2022-11-27T03:58:33.942Z,96972.56
2022-11-27T04:01:06.114Z,96965.78
2022-11-27T04:03:33.915Z,96973.22
2022-11-27T04:06:01.592Z,96972.25
2022-11-27T04:08:29.276Z,96970.72
2022-11-27T04:10:57.038Z,96967.84
2022-11-27T04:13:24.754Z,96976.34
2022-11-27T04:15:52.551Z,96972.84
2022-11-27T04:18:21.855Z,96975.97
2022-11-27T04:20:49.710Z,96973.66
2022-11-27T04:23:17.378Z,96977.03
2022-11-27T04:25:45.186Z,96986.31
2022-11-27T04:28:12.862Z,96989.88
2022-11-27T04:30:40.888Z,96987.91
2022-11-27T04:33:08.551Z,96982.13
2022-11-27T04:35:37.668Z,96979.38
2022-11-27T04:38:05.292Z,96972.69
2022-11-27T04:40:33.016Z,96971.94
2022-11-27T04:43:00.743Z,96971.16
2022-11-27T04:45:28.451Z,96973.31
2022-11-27T04:47:56.125Z,96968.03
2022-11-27T04:50:23.973Z,96969.19
2022-11-27T04:52:53.094Z,96975.44
2022-11-27T04:55:20.906Z,96986.88
2022-11-27T04:57:48.589Z,96985.06
2022-11-27T05:00:17.150Z,96982.66
2022-11-27T05:02:44.856Z,96986.66
2022-11-27T05:05:12.621Z,96987.09
2022-11-27T05:07:40.366Z,96971.41
2022-11-27T05:10:10.573Z,96973.38
2022-11-27T05:12:38.320Z,96979.44
2022-11-27T05:15:07.057Z,96967.56
2022-11-27T05:17:34.761Z,96971.84
2022-11-27T05:20:02.496Z,96975.97
2022-11-27T05:22:30.132Z,96965.78
2022-11-27T05:24:57.768Z,96968.72
2022-11-27T05:27:26.844Z,96972.63
2022-11-27T05:29:54.571Z,96978.34
2022-11-27T05:32:25.065Z,96982.00
2022-11-27T05:34:52.835Z,96985.06
2022-11-27T05:37:20.495Z,96983.00
2022-11-27T05:39:48.203Z,96977.00
2022-11-27T05:42:15.847Z,96976.19
2022-11-27T05:44:44.846Z,96964.59
2022-11-27T05:47:12.494Z,96961.00
2022-11-27T05:49:40.317Z,96967.47
2022-11-27T05:52:07.940Z,96961.31
2022-11-27T05:54:35.603Z,96956.13
2022-11-27T05:57:03.244Z,96958.00
2022-11-27T05:59:30.892Z,96962.00
2022-11-27T06:01:59.959Z,96958.09
2022-11-27T06:04:27.614Z,96949.59
2022-11-27T06:06:55.322Z,96948.84
2022-11-27T06:09:22.952Z,96959.81
2022-11-27T06:11:50.832Z,96956.09
2022-11-27T06:14:18.517Z,96957.06
2022-11-27T06:16:46.284Z,96950.00
2022-11-27T06:19:15.328Z,96937.72
2022-11-27T06:21:42.973Z,96927.31
2022-11-27T06:24:11.921Z,96955.47
2022-11-27T06:26:39.621Z,96952.16
2022-11-27T06:29:07.434Z,96957.53
2022-11-27T06:31:35.279Z,96958.94
2022-11-27T06:34:04.124Z,96961.22
2022-11-27T06:36:35.258Z,96958.00
2022-11-27T06:39:04.125Z,96948.38
2022-11-27T06:41:32.039Z,96950.34
2022-11-27T06:44:01.633Z,96941.22
2022-11-27T06:46:30.328Z,96958.72
2022-11-27T06:48:58.440Z,96946.97
2022-11-27T06:51:28.340Z,96953.19
2022-11-27T06:53:58.028Z,96952.72
2022-11-27T06:56:27.376Z,96941.22
2022-11-27T06:58:57.415Z,96940.78
2022-11-27T07:01:26.612Z,96950.75
2022-11-27T07:03:54.331Z,96944.44
2022-11-27T07:06:23.838Z,96939.63
2022-11-27T07:08:52.273Z,96935.88
2022-11-27T07:11:22.935Z,96938.28
2022-11-27T07:13:52.232Z,96941.19
2022-11-27T07:16:20.220Z,96946.88
2022-11-27T07:18:50.214Z,96941.34
2022-11-27T07:21:18.346Z,96938.75
2022-11-27T07:23:46.205Z,96937.94
2022-11-27T07:26:15.515Z,96925.88
2022-11-27T07:28:44.872Z,96937.41
2022-11-27T07:31:13.869Z,96923.06
2022-11-27T07:33:41.813Z,96942.69
2022-11-27T07:36:14.589Z,96936.38
2022-11-27T07:38:42.773Z,96940.84
2022-11-27T07:41:10.938Z,96930.31
2022-11-27T07:43:39.180Z,96927.91
2022-11-27T07:46:10.193Z,96924.16
2022-11-27T07:48:37.942Z,96914.72
2022-11-27T07:51:07.421Z,96914.38
2022-11-27T07:53:37.297Z,96902.06
2022-11-27T07:56:05.454Z,96902.97
2022-11-27T07:58:33.091Z,96907.78
2022-11-27T08:01:00.909Z,96913.03
2022-11-27T08:03:29.973Z,96907.97
2022-11-27T08:05:57.613Z,96915.19
2022-11-27T08:08:25.288Z,96912.22
2022-11-27T08:10:52.908Z,96902.94
2022-11-27T08:13:20.566Z,96901.06
2022-11-27T08:15:48.341Z,96903.50
2022-11-27T08:18:16.017Z,96906.16
2022-11-27T08:20:45.707Z,96897.28
2022-11-27T08:23:13.462Z,96894.44
2022-11-27T08:25:41.161Z,96889.13
2022-11-27T08:28:08.950Z,96884.13
2022-11-27T08:30:36.619Z,96882.00
2022-11-27T08:33:04.527Z,96880.88
2022-11-27T08:35:32.252Z,96885.69
2022-11-27T08:38:01.355Z,96881.56
2022-11-27T08:40:29.000Z,96884.22
2022-11-27T08:42:56.622Z,96886.91
2022-11-27T08:45:24.311Z,96895.28
2022-11-27T08:47:51.980Z,96890.56
2022-11-27T08:50:19.767Z,96898.81
2022-11-27T08:52:47.419Z,96878.09
2022-11-27T08:55:16.813Z,96857.28
2022-11-27T08:57:44.498Z,96880.50
2022-11-27T09:00:13.156Z,96881.34
2022-11-27T09:02:43.033Z,96884.75
2022-11-27T09:05:11.247Z,96874.94
2022-11-27T09:07:40.898Z,96882.16
2022-11-27T09:10:09.488Z,96889.75
2022-11-27T09:12:43.217Z,96881.34
2022-11-27T09:15:12.043Z,96878.53
2022-11-27T09:17:40.280Z,96877.34
2022-11-27T09:20:09.357Z,96880.16
2022-11-27T09:22:37.061Z,96868.53
2022-11-27T09:25:05.127Z,96868.13
2022-11-27T09:27:32.763Z,96864.13
2022-11-27T09:30:02.167Z,96866.13
2022-11-27T09:32:29.796Z,96869.13
2022-11-27T09:34:57.874Z,96870.09
2022-11-27T09:37:25.607Z,96860.06
2022-11-27T09:39:53.425Z,96854.84
2022-11-27T09:42:38.472Z,96848.75
2022-11-27T09:45:13.287Z,96842.66
2022-11-27T09:47:44.003Z,96837.25
2022-11-27T09:50:15.792Z,96834.78
2022-11-27T09:52:47.572Z,96827.19
2022-11-27T09:55:21.207Z,96821.31
2022-11-27T09:58:00.313Z,96809.06
2022-11-27T10:00:29.646Z,96799.31
2022-11-27T10:02:57.461Z,96810.31
2022-11-27T10:05:29.750Z,96803.69
2022-11-27T10:08:27.489Z,96799.16
2022-11-27T10:11:09.217Z,96800.81
2022-11-27T10:13:52.490Z,96792.53
2022-11-27T10:16:31.513Z,96797.59
2022-11-27T10:19:05.892Z,96790.63
2022-11-27T10:21:43.511Z,96787.13
2022-11-27T10:24:21.094Z,96788.00
2022-11-27T10:26:50.034Z,96773.91
2022-11-27T10:29:31.699Z,96767.84
2022-11-27T10:32:05.679Z,96766.44
2022-11-27T10:34:39.845Z,96768.03
2022-11-27T10:37:13.593Z,96764.13
2022-11-27T10:39:45.569Z,96757.25
2022-11-27T10:42:18.567Z,96748.69
2022-11-27T10:44:51.335Z,96725.34
2022-11-27T10:47:24.106Z,96754.97
2022-11-27T10:49:51.979Z,96706.38
2022-11-27T10:52:21.155Z,96747.22
2022-11-27T10:54:54.140Z,96745.78
2022-11-27T10:57:45.305Z,96761.47
2022-11-27T11:00:16.560Z,96756.88
2022-11-27T11:02:45.845Z,96752.81
2022-11-27T11:05:41.048Z,96751.38
2022-11-27T11:08:17.928Z,96745.81
2022-11-27T11:10:52.978Z,96749.44
2022-11-27T11:13:23.745Z,96746.28
2022-11-27T11:15:54.751Z,96754.06
2022-11-27T11:18:25.364Z,96726.94
2022-11-27T11:20:56.111Z,96760.09
2022-11-27T11:23:33.569Z,96760.09
2022-11-27T11:26:05.236Z,96758.47
2022-11-27T11:28:39.555Z,96751.53
2022-11-27T11:31:11.943Z,96762.88
2022-11-27T11:33:50.868Z,96737.59
2022-11-27T11:36:18.765Z,96751.03
2022-11-27T11:38:48.289Z,96675.31
2022-11-27T11:41:18.049Z,96724.41
2022-11-27T11:43:58.873Z,96742.59
2022-11-27T11:46:29.773Z,96716.69
2022-11-27T11:49:02.253Z,96747.97
2022-11-27T11:52:12.699Z,96742.97
2022-11-27T11:54:52.784Z,96740.31
2022-11-27T11:57:36.610Z,96746.09
2022-11-27T12:00:10.760Z,96740.25
2022-11-27T12:03:04.230Z,96740.34
2022-11-27T12:05:40.849Z,96731.59
2022-11-27T12:08:29.937Z,96735.75
2022-11-27T12:11:06.679Z,96724.38
2022-11-27T12:13:45.988Z,96720.84
2022-11-27T12:16:20.821Z,96684.41
2022-11-27T12:19:05.340Z,96711.69
2022-11-27T12:21:44.853Z,96718.66
2022-11-27T12:24:25.309Z,96703.06
2022-11-27T12:27:09.656Z,96712.69
2022-11-27T12:29:58.315Z,96705.63
2022-11-27T12:32:40.102Z,96699.47
2022-11-27T12:35:30.439Z,96698.84
2022-11-27T12:38:10.897Z,96671.31
2022-11-27T12:40:51.440Z,96611.28
2022-11-27T12:43:25.490Z,96686.72
2022-11-27T12:45:59.442Z,96696.75
2022-11-27T12:48:32.635Z,96684.59
2022-11-27T12:51:04.995Z,96678.53
2022-11-27T12:53:40.266Z,96669.06
2022-11-27T12:56:13.500Z,96664.84
2022-11-27T12:58:44.331Z,96647.31
2022-11-27T13:01:16.770Z,96633.63
2022-11-27T13:03:57.401Z,96653.53
2022-11-27T13:06:29.504Z,96653.34
2022-11-27T13:09:03.765Z,96646.78
2022-11-27T13:11:35.939Z,96646.31
2022-11-27T13:14:08.578Z,96643.91
2022-11-27T13:16:40.866Z,96638.34
2022-11-27T13:19:15.559Z,96644.72
2022-11-27T13:21:46.126Z,96635.56
2022-11-27T13:24:15.867Z,96638.31
2022-11-27T13:26:49.971Z,96632.91
2022-11-27T13:29:26.048Z,96636.09
2022-11-27T13:31:57.407Z,96632.75
2022-11-27T13:34:28.338Z,96625.97
2022-11-27T13:36:58.993Z,96628.16
2022-11-27T13:39:31.212Z,96619.75
2022-11-27T13:42:06.964Z,96607.50
2022-11-27T13:44:39.077Z,96620.69
2022-11-27T13:47:11.441Z,96621.59
2022-11-27T13:49:39.431Z,96557.66
2022-11-27T13:52:11.728Z,96621.94
2022-11-27T13:54:52.286Z,96612.91
2022-11-27T13:57:21.112Z,96616.13
2022-11-27T13:59:57.501Z,96601.59
2022-11-27T14:02:26.017Z,96601.63
2022-11-27T14:04:56.378Z,96579.69
2022-11-27T14:07:25.249Z,96603.06
2022-11-27T14:09:56.961Z,96592.69
2022-11-27T14:12:27.831Z,96599.34
2022-11-27T14:15:03.378Z,96576.75
2022-11-27T14:17:37.073Z,96587.53
2022-11-27T14:20:20.047Z,96592.72
2022-11-27T14:25:39.689Z,96588.28
2022-11-27T14:28:15.602Z,96593.31
2022-11-27T14:30:49.123Z,96587.69
2022-11-27T14:33:23.323Z,96597.50
2022-11-27T14:35:52.585Z,96604.72
2022-11-27T14:38:20.508Z,96595.13
2022-11-27T14:40:50.504Z,96584.25
2022-11-27T14:43:23.729Z,96585.31
2022-11-27T14:45:54.020Z,96564.16
2022-11-27T14:48:23.807Z,96574.91
2022-11-27T14:50:53.534Z,96573.94
2022-11-27T14:53:23.788Z,96566.94
2022-11-27T14:55:55.962Z,96567.09
2022-11-27T14:58:26.845Z,96571.47
2022-11-27T15:01:00.718Z,96562.81
2022-11-27T15:03:28.598Z,96545.25
2022-11-27T15:05:59.532Z,96560.41
2022-11-27T15:08:28.381Z,96552.59
2022-11-27T15:10:59.671Z,96556.44
2022-11-27T15:13:30.057Z,96538.69
2022-11-27T15:16:02.422Z,96557.88
2022-11-27T15:18:33.483Z,96546.25
2022-11-27T15:21:03.225Z,96549.66
2022-11-27T15:23:34.017Z,96543.47
2022-11-27T15:26:14.983Z,96508.75
2022-11-27T15:28:50.961Z,96541.44
2022-11-27T15:31:26.137Z,96537.81
2022-11-27T15:33:58.679Z,96537.44
2022-11-27T15:36:27.603Z,96484.00
2022-11-27T15:39:17.341Z,96502.09
2022-11-27T15:41:53.601Z,96511.72
2022-11-27T15:44:21.475Z,96480.19
2022-11-27T15:46:50.233Z,96503.56
2022-11-27T15:49:19.526Z,96501.56
2022-11-27T15:51:47.621Z,96502.75
2022-11-27T15:54:15.334Z,96491.72
2022-11-27T15:56:43.427Z,96494.53
2022-11-27T15:59:12.548Z,96432.44
2022-11-27T16:01:46.134Z,96493.94
2022-11-27T16:04:13.914Z,96498.66
2022-11-27T16:06:41.608Z,96492.06
2022-11-27T16:09:09.504Z,96483.53
2022-11-27T16:11:37.368Z,96465.13
2022-11-27T16:14:05.229Z,96476.88
2022-11-27T16:16:35.158Z,96476.06
2022-11-27T16:19:06.288Z,96483.09
2022-11-27T16:21:35.437Z,96464.50
2022-11-27T16:24:05.416Z,96471.34
2022-11-27T16:26:33.570Z,96472.34
2022-11-27T16:29:01.579Z,96443.75
2022-11-27T16:31:29.838Z,96385.50
2022-11-27T16:33:59.621Z,96430.00
2022-11-27T16:36:27.508Z,96330.56
2022-11-27T16:38:55.941Z,96423.09
2022-11-27T16:41:26.037Z,96407.16
2022-11-27T16:43:56.855Z,96359.88
2022-11-27T16:46:27.716Z,96448.25
2022-11-27T16:48:56.241Z,96438.59
2022-11-27T16:51:28.314Z,96419.56
2022-11-27T16:53:59.392Z,96352.22
2022-11-27T16:56:29.310Z,96386.84
2022-11-27T16:59:02.802Z,96415.72
2022-11-27T17:01:35.832Z,96398.88
2022-11-27T17:04:07.080Z,96414.78
2022-11-27T17:06:37.597Z,96387.63
2022-11-27T17:09:07.950Z,96386.44
2022-11-27T17:11:38.088Z,96349.84
2022-11-27T17:14:08.619Z,96384.50
2022-11-27T17:16:38.727Z,96360.56
2022-11-27T17:19:06.591Z,96378.81
2022-11-27T17:21:36.516Z,96383.75
2022-11-27T17:24:11.645Z,96318.50
2022-11-27T17:26:46.174Z,96372.31
2022-11-27T17:29:15.972Z,96300.38
2022-11-27T17:31:44.965Z,96368.22
2022-11-27T17:34:15.625Z,96368.31
2022-11-27T17:36:46.859Z,96358.88
2022-11-27T17:39:15.821Z,96352.56
2022-11-27T17:41:46.889Z,96270.16
2022-11-27T17:44:14.720Z,96337.03
2022-11-27T17:46:44.901Z,96227.53
2022-11-27T17:49:13.257Z,96369.81
2022-11-27T17:51:41.235Z,96367.00
2022-11-27T17:54:12.612Z,96312.41
2022-11-27T17:56:40.347Z,96355.47
2022-11-27T17:59:10.253Z,96350.41
2022-11-27T18:01:39.087Z,96348.44
2022-11-27T18:04:06.857Z,96346.63
2022-11-27T18:06:35.958Z,96347.88
2022-11-27T18:09:04.493Z,96327.78
2022-11-27T18:11:34.714Z,96337.09
2022-11-27T18:14:03.119Z,96347.84
2022-11-27T18:16:33.358Z,96343.97
2022-11-27T18:19:03.872Z,96335.75
2022-11-27T18:21:31.684Z,96238.16
2022-11-27T18:24:22.653Z,96318.00
2022-11-27T18:29:38.842Z,96212.06
2022-11-27T18:32:07.525Z,96300.22
2022-11-27T18:34:36.484Z,96192.56
2022-11-27T18:37:04.472Z,96304.56
2022-11-27T18:39:32.706Z,96274.13
2022-11-27T18:42:03.249Z,96296.56
2022-11-27T18:44:30.959Z,96268.53
2022-11-27T18:46:59.495Z,96299.03
2022-11-27T18:49:27.742Z,96281.88
2022-11-27T18:51:56.340Z,96277.78
2022-11-27T18:54:24.863Z,96194.31
2022-11-27T18:56:52.691Z,96250.75
2022-11-27T18:59:22.014Z,96266.50
2022-11-27T19:01:50.354Z,96266.78
2022-11-27T19:04:18.582Z,96213.78
2022-11-27T19:06:47.625Z,96263.16
2022-11-27T19:09:15.765Z,96266.53
2022-11-27T19:11:44.181Z,96172.84
2022-11-27T19:14:12.168Z,96213.03
2022-11-27T19:16:46.336Z,96245.59
2022-11-27T19:19:52.703Z,96249.41
2022-11-27T19:22:07.421Z,96252.50
2022-11-27T19:24:35.248Z,96100.97
2022-11-27T19:27:03.570Z,96198.00
2022-11-27T19:29:31.655Z,96254.81
2022-11-27T19:32:01.269Z,96240.34
2022-11-27T19:34:29.415Z,96257.22
2022-11-27T19:36:58.124Z,96251.22
2022-11-27T19:39:26.889Z,96247.66
2022-11-27T19:41:54.705Z,96249.63
2022-11-27T19:44:22.427Z,96243.84
2022-11-27T19:46:50.207Z,96234.84
2022-11-27T19:49:21.279Z,96228.75
2022-11-27T19:51:49.715Z,96198.19
2022-11-27T19:54:20.543Z,96178.06
2022-11-27T19:56:49.769Z,96214.16
2022-11-27T19:59:24.247Z,96123.31
2022-11-27T20:01:54.471Z,96204.16
2022-11-27T20:04:28.483Z,96185.13
2022-11-27T20:06:56.210Z,96191.56
2022-11-27T20:09:25.727Z,96220.31
2022-11-27T20:11:56.078Z,96102.47
2022-11-27T20:14:23.767Z,96172.06
2022-11-27T20:16:51.661Z,96189.31
2022-11-27T20:19:19.489Z,96170.16
2022-11-27T20:21:48.699Z,96174.72
2022-11-27T20:24:16.792Z,96187.97
2022-11-27T20:26:45.505Z,96162.63
2022-11-27T20:29:13.985Z,96161.78
2022-11-27T20:31:44.542Z,96179.22
2022-11-27T20:34:18.668Z,96149.31
2022-11-27T20:36:48.261Z,96171.28
2022-11-27T20:39:21.000Z,96115.00
2022-11-27T20:41:50.792Z,96152.03
2022-11-27T20:44:18.694Z,96158.28
2022-11-27T20:46:47.127Z,96040.66
2022-11-27T20:49:15.138Z,96057.66
2022-11-27T20:51:43.038Z,96126.63
2022-11-27T20:54:12.831Z,96052.59
2022-11-27T20:56:43.070Z,96099.34
2022-11-27T20:59:10.938Z,96137.09
2022-11-27T21:01:41.316Z,96089.44
2022-11-27T21:04:19.790Z,96082.91
2022-11-27T21:06:48.178Z,96124.69
2022-11-27T21:09:17.919Z,96115.84
2022-11-27T21:11:47.309Z,96110.44
2022-11-27T21:14:16.781Z,96108.63
2022-11-27T21:16:48.429Z,96103.34
2022-11-27T21:19:19.903Z,95999.63
2022-11-27T21:21:48.244Z,96100.53
2022-11-27T21:24:18.171Z,96077.44
2022-11-27T21:26:46.536Z,96046.53
2022-11-27T21:29:16.839Z,96092.25
2022-11-27T21:31:47.024Z,96093.53
2022-11-27T21:34:15.851Z,95989.28
2022-11-27T21:36:44.968Z,96055.03
2022-11-27T21:39:19.964Z,96070.66
2022-11-27T21:41:50.980Z,96082.94
2022-11-27T21:44:22.223Z,96087.41
2022-11-27T21:46:50.203Z,96082.56
2022-11-27T21:49:20.364Z,96084.81
2022-11-27T21:51:51.875Z,96083.50
2022-11-27T21:54:20.451Z,96067.63
2022-11-27T21:56:51.737Z,95982.88
2022-11-27T21:59:19.745Z,96084.72
2022-11-27T22:01:48.942Z,96076.00
2022-11-27T22:04:17.181Z,96065.75
2022-11-27T22:06:45.424Z,96039.19
2022-11-27T22:09:15.595Z,96073.56
2022-11-27T22:11:44.704Z,96067.19
2022-11-27T22:14:15.476Z,96067.34
2022-11-27T22:16:46.734Z,96070.31
2022-11-27T22:19:16.957Z,96059.75
2022-11-27T22:21:45.782Z,95988.22
2022-11-27T22:24:18.846Z,96054.63
2022-11-27T22:26:47.309Z,96045.50
2022-11-27T22:29:16.681Z,96038.81
2022-11-27T22:31:44.379Z,96034.38
2022-11-27T22:34:12.071Z,96028.53
2022-11-27T22:36:40.584Z,96018.16
2022-11-27T22:39:09.270Z,96024.16
2022-11-27T22:41:39.165Z,96035.63
2022-11-27T22:44:07.669Z,96033.25
2022-11-27T22:46:40.413Z,96030.06
2022-11-27T22:49:08.434Z,96034.38
2022-11-27T22:51:37.576Z,96036.91
2022-11-27T22:54:09.738Z,96026.81
2022-11-27T22:56:37.609Z,96020.59
2022-11-27T22:59:31.031Z,96008.25
2022-11-27T23:01:56.451Z,96006.09
2022-11-27T23:04:24.088Z,95998.00
2022-11-27T23:06:51.901Z,96007.03
2022-11-27T23:09:19.770Z,95999.44
2022-11-27T23:11:48.117Z,96002.78
2022-11-27T23:14:15.821Z,95994.31
2022-11-27T23:16:43.590Z,95991.38
2022-11-27T23:19:12.743Z,95999.59
2022-11-27T23:21:40.451Z,95980.53
2022-11-27T23:24:10.670Z,95988.31
2022-11-27T23:26:38.517Z,95982.91
2022-11-27T23:29:06.301Z,95981.53
2022-11-27T23:31:35.725Z,95976.78
2022-11-27T23:34:07.263Z,95964.22
2022-11-27T23:36:37.040Z,95952.81
2022-11-27T23:39:08.450Z,95969.25
2022-11-27T23:41:36.128Z,95971.38
2022-11-27T23:44:03.795Z,95972.97
2022-11-27T23:46:31.671Z,95964.94
2022-11-27T23:49:01.044Z,95964.28
2022-11-27T23:51:30.460Z,95959.41
2022-11-27T23:54:00.372Z,95956.63
2022-11-27T23:56:29.437Z,95953.03
2022-11-27T23:58:58.141Z,95926.06
